Date,TemperatureHighF,TemperatureAvgF,TemperatureLowF,DewpointHighF,DewpointAvgF,DewpointLowF,HumidityHigh,HumidityAvg,HumidityLow,PressureMaxIn,PressureMinIn,WindSpeedMaxMPH,WindSpeedAvgMPH,GustSpeedMaxMPH,PrecipitationSumIn
2013-1-1,32,8,2,5,1,-10,83,72,15,29.50,29.38,22,10,22,0.00
2013-1-2,32,20,7,18,12,-10,84,73,58,29.44,29.31,21,8,21,0.00
2013-1-3,41,22,16,19,16,-16,84,79,10,29.45,29.30,27,13,27,0.00
2013-1-4,32,22,12,97,14,-10,85,72,10,31.10,22.69,44,0,44,0.00
2013-1-5,38,29,18,35,25,-10,99,83,15,29.47,29.13,28,9,28,0.00
2013-1-6,35,29,20,33,23,-10,91,79,15,29.55,29.12,26,8,26,0.00
2013-1-7,40,29,17,27,20,-10,91,70,15,29.54,29.30,29,4,29,0.00
2013-1-8,40,35,28,36,30,-10,94,83,14,29.40,29.20,23,5,23,0.00
2013-1-9,42,37,30,32,26,-10,83,66,15,29.70,29.16,181,11,181,0.00
2013-1-10,41,34,24,41,29,-10,99,82,15,29.77,29.19,22,-2,22,0.28
2013-1-11,47,42,32,46,41,-10,99,97,15,30.34,28.90,37,0,37,0.38
2013-1-12,54,40,26,50,33,-10,99,75,15,30.05,28.90,38,15,38,0.00
2013-1-13,26,19,13,23,13,4,89,76,66,30.23,29.93,28,12,28,0.00
2013-1-14,25,16,9,10,7,3,79,67,45,30.48,30.22,22,9,22,0.00
2013-1-15,41,22,14,24,13,10,87,67,41,30.46,30.13,17,7,17,0.00
2013-1-16,33,28,20,29,20,10,91,72,52,30.13,29.77,36,13,36,0.00
2013-1-17,32,19,12,26,8,-2,79,61,41,30.45,30.09,25,10,26,0.00
2013-1-18,43,30,11,33,21,5,92,72,57,30.46,29.85,37,13,37,0.00
2013-1-19,45,38,14,35,29,1,88,69,34,29.92,29.66,55,17,55,0.00
2013-1-20,14,10,6,4,-2,-4,70,57,45,30.32,29.91,47,16,47,0.00
2013-1-21,8,2,-5,0,-10,-17,77,57,44,30.31,30.15,37,16,37,0.00
2013-1-22,5,-1,-7,-8,-13,-18,66,57,49,30.38,30.30,24,13,24,0.00
2013-1-23,17,10,1,12,1,-8,89,67,57,30.41,30.11,28,11,28,0.00
2013-1-24,17,10,1,7,0,-7,71,62,55,30.68,30.41,28,9,28,0.00
2013-1-25,23,19,15,19,13,4,92,76,50,30.41,29.98,23,10,23,0.00
2013-1-26,44,19,8,27,10,3,81,70,49,30.43,30.15,21,9,21,0.00
2013-1-27,42,30,27,33,26,14,99,85,59,30.40,29.96,31,16,31,0.02
2013-1-28,40,36,33,36,34,32,99,95,78,30.03,29.84,18,6,18,0.08
2013-1-29,55,42,36,54,42,36,99,99,99,29.91,29.53,20,8,20,0.72
2013-1-30,37,28,16,37,27,12,99,94,81,29.60,29.32,34,17,34,0.46
2013-1-31,16,11,3,12,5,-3,83,74,64,30.12,29.60,36,19,36,0.00
2013-2-1,7,2,-2,2,-6,-9,85,69,56,30.32,30.12,30,16,30,0.00
2013-2-2,13,8,5,5,1,-2,89,73,55,30.19,30.06,18,9,18,0.00
2013-2-3,17,12,6,8,5,-1,85,73,60,30.08,29.97,30,10,30,0.00
2013-2-4,18,13,9,10,6,-1,92,74,50,30.08,29.98,17,7,17,0.00
2013-2-5,26,19,8,22,12,-1,95,76,61,30.15,29.81,23,9,23,0.00
2013-2-6,35,24,10,33,18,7,94,78,63,30.29,30.14,18,6,18,0.00
2013-2-7,36,32,22,36,31,22,99,98,91,30.19,29.98,19,5,19,0.05
2013-2-8,23,16,13,22,14,12,99,93,89,30.44,30.07,0,0,0,0.00
2013-2-9,49,22,8,28,20,7,99,92,83,30.45,30.11,21,4,21,0.00
2013-2-10,42,35,28,40,34,26,99,98,93,30.15,29.47,28,9,28,0.48
2013-2-11,41,33,28,41,28,20,99,80,71,30.01,29.47,43,21,43,0.01
2013-2-12,29,25,22,23,19,15,88,76,63,30.12,29.91,23,10,26,0.00
2013-2-13,39,32,23,31,26,22,98,80,63,29.92,29.75,20,8,20,0.00
2013-2-14,38,33,26,36,31,22,99,92,80,30.04,29.63,30,11,30,0.05
2013-2-15,26,20,14,22,10,4,87,65,49,30.22,30.04,22,11,22,0.00
2013-2-16,17,12,6,7,1,-2,80,62,44,30.23,30.17,24,11,24,0.00
2013-2-17,31,18,6,22,5,-2,71,58,39,30.26,30.04,27,10,27,0.00
2013-2-18,46,35,31,40,31,21,99,86,69,30.04,29.45,33,15,33,0.34
2013-2-19,33,16,8,33,10,-1,99,79,62,30.17,29.50,45,22,45,0.34
2013-2-20,21,14,6,11,5,-1,77,69,58,30.42,30.16,26,13,30,0.00
2013-2-21,26,19,14,22,14,8,86,81,74,30.44,30.18,26,13,26,0.00
2013-2-22,32,28,24,31,28,21,99,96,85,30.18,29.84,29,11,29,0.02
2013-2-23,30,27,23,26,21,18,92,80,64,29.96,29.88,22,11,22,0.00
2013-2-24,37,28,22,29,24,18,99,83,59,30.20,29.96,19,7,19,0.00
2013-2-25,37,30,21,32,28,20,99,93,76,30.24,30.12,10,3,10,0.00
2013-2-26,35,33,31,32,30,26,99,89,76,30.13,29.68,41,17,41,0.00
2013-2-27,37,32,30,33,32,30,99,99,99,30.13,29.63,28,13,28,0.07
2013-2-28,33,30,25,32,27,20,99,88,75,30.16,29.79,30,16,30,0.01
2013-3-1,25,23,20,20,19,14,88,82,70,30.28,30.14,29,16,29,0.00
2013-3-2,26,20,14,16,13,9,80,75,64,30.27,30.21,21,11,21,0.00
2013-3-3,29,18,9,13,9,5,84,68,49,30.21,30.14,15,7,15,0.00
2013-3-4,32,23,11,28,18,5,86,78,71,30.20,30.12,15,7,17,0.00
2013-3-5,34,30,27,28,25,21,98,81,64,30.12,29.96,30,13,30,0.00
2013-3-6,35,30,27,29,26,23,91,84,76,30.35,30.09,27,12,27,1.16
2013-3-7,35,27,20,25,20,16,85,74,63,30.50,30.34,15,6,15,0.00
2013-3-8,36,28,16,32,25,14,99,88,74,30.53,30.36,17,6,17,0.00
2013-3-9,36,34,32,36,33,29,99,96,91,30.36,29.90,21,11,21,0.06
2013-3-10,43,36,33,42,36,32,99,99,99,29.90,29.68,27,8,27,0.56
2013-3-11,40,34,30,36,34,27,99,99,89,29.78,29.56,21,4,21,0.20
2013-3-12,34,29,24,28,23,10,98,78,59,30.22,29.78,23,7,23,0.01
2013-3-13,32,25,19,20,11,4,84,58,33,30.33,30.02,29,15,29,0.00
2013-3-14,36,29,20,29,17,10,92,62,39,30.33,30.10,18,8,18,0.00
2013-3-15,36,32,28,34,29,23,99,90,72,30.10,29.90,22,7,22,0.02
2013-3-16,32,27,21,28,21,14,99,79,51,30.18,29.87,27,12,27,0.01
2013-3-17,30,24,15,23,13,3,75,63,51,30.33,30.10,22,10,22,0.00
2013-3-18,33,29,19,33,26,12,99,88,68,30.11,29.62,36,10,36,0.07
2013-3-19,30,21,14,12,6,0,75,55,31,30.19,29.73,49,22,49,0.01
2013-3-20,21,15,10,3,-2,-6,55,46,35,30.08,30.03,37,18,37,0.00
2013-3-21,30,20,11,10,6,0,65,54,41,30.09,30.02,23,12,23,0.00
2013-3-22,35,25,15,18,11,6,77,57,36,30.14,30.06,15,7,16,0.00
2013-3-23,36,29,22,24,18,13,72,64,47,30.21,30.12,15,7,15,0.00
2013-3-24,34,32,29,32,25,20,99,76,65,30.12,29.83,32,14,32,0.01
2013-3-25,35,31,27,26,23,20,90,74,56,30.14,29.84,31,14,31,0.00
2013-3-26,40,35,30,26,24,22,77,65,54,30.29,30.14,19,10,19,0.00
2013-3-27,43,37,33,25,18,8,71,47,24,30.35,30.28,20,8,20,0.00
2013-3-28,46,36,29,29,19,10,73,51,26,30.39,30.33,14,6,14,0.00
2013-3-29,46,38,32,23,16,4,56,43,24,30.38,30.29,17,7,17,0.00
2013-3-30,52,40,33,43,27,14,91,62,43,30.44,29.86,18,8,18,0.02
2013-3-31,49,41,32,43,33,14,99,75,41,29.94,29.75,34,14,34,0.02
2013-4-1,41,30,25,17,7,1,55,39,25,30.22,29.70,34,14,34,0.00
2013-4-2,39,31,24,13,8,-5,61,40,16,30.36,30.21,25,11,25,0.00
2013-4-3,38,32,25,19,13,-5,66,47,17,30.53,30.34,17,8,17,0.00
2013-4-4,58,44,30,30,15,-3,53,33,19,30.35,30.00,33,13,33,0.00
2013-4-5,41,35,31,30,23,15,89,62,40,30.33,30.08,23,9,23,0.00
2013-4-6,56,41,33,50,35,21,89,78,56,30.25,29.59,23,12,23,0.04
2013-4-7,55,41,35,49,33,28,98,73,51,30.06,29.59,39,12,39,0.04
2013-4-8,46,38,34,44,38,33,99,98,89,30.08,29.71,25,7,25,0.43
2013-4-9,42,37,34,41,36,33,99,99,99,30.12,29.96,35,13,35,0.56
2013-4-10,49,35,33,37,35,28,99,99,95,30.15,29.96,34,19,34,0.71
2013-4-11,41,36,29,40,35,26,99,99,97,30.05,29.69,39,16,39,0.43
2013-4-12,42,36,33,39,35,33,99,97,85,29.84,29.60,17,7,17,0.15
2013-4-13,39,36,32,33,27,20,99,70,49,30.06,29.82,29,11,29,0.05
2013-4-14,42,36,31,41,33,25,97,89,74,30.09,29.74,23,8,23,0.02
2013-4-15,63,51,41,55,45,26,99,83,30,30.01,29.72,34,11,34,0.18
2013-4-16,53,41,34,42,33,28,96,74,45,30.37,30.00,24,7,24,0.02
2013-4-17,40,38,37,40,37,32,99,93,78,30.42,29.98,23,11,23,0.27
2013-4-18,47,42,40,46,42,34,99,98,76,29.99,29.43,36,8,36,0.65
2013-4-19,42,37,31,35,25,13,81,64,43,29.93,29.41,46,20,46,0.01
2013-4-20,43,33,26,26,16,-1,71,51,16,30.49,29.93,26,12,26,0.00
2013-4-21,41,37,34,36,28,23,88,69,57,30.60,30.35,23,13,23,0.00
2013-4-22,47,42,38,39,36,32,99,80,58,30.36,30.11,18,10,18,0.00
2013-4-23,56,42,37,51,40,34,99,92,67,30.12,29.95,29,9,29,0.33
2013-4-24,53,42,33,35,22,4,87,49,15,30.09,29.99,23,9,23,0.01
2013-4-25,52,44,36,38,28,14,97,57,24,30.36,30.01,33,12,33,0.02
2013-4-26,69,49,40,43,36,25,88,64,33,30.39,30.21,34,11,34,0.00
2013-4-27,57,50,46,46,42,38,88,74,55,30.31,30.09,18,7,18,0.00
2013-4-28,55,50,47,50,41,36,95,73,56,30.09,29.89,12,4,12,0.00
2013-4-29,64,52,44,56,49,44,99,90,66,29.93,29.84,18,7,18,0.01
2013-4-30,56,50,44,50,47,44,99,91,76,29.97,29.80,22,11,22,0.01
2013-5-1,63,55,45,56,49,37,98,80,68,30.30,29.97,33,10,33,0.00
2013-5-2,53,45,38,46,38,34,99,78,60,30.34,30.24,32,16,32,0.15
2013-5-3,50,42,38,46,41,37,99,96,83,30.28,30.08,31,15,31,0.39
2013-5-4,67,53,43,46,43,41,96,73,45,30.14,30.07,28,8,28,0.00
2013-5-5,65,55,45,44,39,33,89,59,36,30.16,30.09,19,7,19,0.00
2013-5-6,73,56,48,44,38,26,76,52,22,30.16,30.07,13,5,13,0.00
2013-5-7,72,57,50,43,36,29,64,46,23,30.15,30.07,14,5,14,0.00
2013-5-8,72,58,48,45,36,22,69,45,21,30.12,30.04,10,4,10,0.00
2013-5-9,60,51,41,50,43,36,99,77,47,30.04,29.99,34,9,34,0.19
2013-5-10,45,41,38,43,41,36,99,98,92,30.05,29.93,36,15,36,0.73
2013-5-11,56,46,38,54,36,21,99,74,34,30.06,29.81,48,13,48,0.02
2013-5-12,51,42,37,37,27,17,93,58,27,30.21,30.06,29,13,31,0.00
2013-5-13,49,42,33,40,34,24,93,74,40,30.26,30.03,19,8,19,0.00
2013-5-14,79,56,44,54,46,37,93,73,40,30.04,29.60,27,10,27,0.00
2013-5-15,79,68,56,57,45,36,71,46,25,29.91,29.60,33,10,33,0.00
2013-5-16,72,62,55,47,35,12,59,38,17,30.09,29.90,21,10,21,0.00
2013-5-17,56,51,46,50,43,32,99,77,41,30.22,30.07,21,8,21,0.39
2013-5-18,65,54,49,47,45,42,89,72,50,30.17,30.04,14,3,14,0.00
2013-5-19,67,56,49,62,53,47,99,89,70,30.06,29.82,23,5,23,0.00
2013-5-20,86,64,54,62,55,50,99,78,30,29.85,29.75,27,8,27,0.00
2013-5-21,80,62,53,64,57,51,99,85,43,29.79,29.69,24,8,24,0.17
2013-5-22,64,56,51,59,54,50,99,96,82,29.85,29.73,23,6,23,0.76
2013-5-23,52,47,41,52,42,36,99,86,64,30.38,29.85,34,16,34,0.17
2013-5-24,50,44,38,40,35,32,82,70,55,30.51,30.38,19,7,19,0.00
2013-5-25,54,48,41,42,36,32,87,66,45,30.49,30.37,15,4,15,0.00
2013-5-26,56,50,42,46,41,34,80,72,61,30.40,30.26,15,5,15,0.00
2013-5-27,52,48,46,49,45,38,99,89,60,30.27,29.99,18,6,18,0.01
2013-5-28,60,51,47,56,50,46,99,98,92,29.99,29.80,11,3,11,0.25
2013-5-29,62,56,49,59,55,48,99,97,85,30.00,29.85,18,5,18,0.00
2013-5-30,64,58,54,64,57,53,99,96,91,29.99,29.84,21,8,21,0.04
2013-5-31,68,58,52,64,56,19,99,95,76,30.39,29.79,19,8,19,0.18
2013-6-1,77,62,54,67,59,54,99,90,57,29.79,29.69,23,8,23,0.14
2013-6-2,62,52,46,61,48,43,99,88,65,30.11,29.73,21,8,21,0.15
2013-6-3,60,53,45,52,46,38,99,81,50,30.17,30.09,18,7,18,0.00
2013-6-4,59,52,46,52,45,37,95,77,50,30.27,30.16,17,6,17,0.00
2013-6-5,59,53,50,51,47,44,97,82,60,30.23,30.07,16,6,16,0.02
2013-6-6,62,54,51,55,49,45,99,83,63,30.07,30.01,18,7,18,0.08
2013-6-7,70,60,52,52,45,33,86,62,27,30.07,29.99,16,6,16,0.00
2013-6-8,63,57,50,54,50,44,96,77,66,30.12,29.99,11,4,11,0.00
2013-6-9,64,58,51,62,54,49,99,89,76,30.12,29.93,15,4,15,0.00
2013-6-10,69,60,54,65,58,53,99,92,74,29.94,29.86,23,3,23,0.00
2013-6-11,81,66,57,66,61,56,99,86,53,29.99,29.88,17,5,17,0.00
2013-6-12,68,61,52,66,60,51,99,96,78,30.00,29.74,27,6,27,0.53
2013-6-13,71,62,54,59,54,51,99,78,59,30.16,29.81,22,9,22,0.54
2013-6-14,64,57,52,53,50,48,94,77,65,30.23,30.11,16,5,16,0.00
2013-6-15,67,58,52,67,56,45,99,92,69,30.13,29.89,21,7,21,0.85
2013-6-16,85,74,63,66,58,44,99,64,25,29.96,29.88,23,8,23,0.86
2013-6-17,70,63,57,60,55,31,89,76,57,30.07,29.93,27,7,27,0.00
2013-6-18,68,59,51,55,48,37,97,70,41,30.17,30.05,23,10,23,0.00
2013-6-19,63,58,48,52,45,30,88,64,30,30.25,30.16,12,5,12,0.00
2013-6-20,69,64,57,59,51,39,79,65,46,30.25,30.17,13,5,13,0.00
2013-6-21,77,66,61,71,62,54,99,90,67,30.20,30.00,25,6,27,0.18
2013-6-22,72,64,56,71,64,56,99,98,85,30.19,30.03,21,6,21,0.12
2013-6-23,86,72,61,73,66,60,99,85,62,30.09,29.96,18,8,18,0.00
2013-6-24,82,71,65,71,67,62,99,89,62,30.09,29.92,17,7,19,0.01
2013-6-25,76,68,62,74,67,62,99,97,83,30.03,29.86,21,5,21,0.44
2013-6-26,76,67,61,71,65,61,99,95,74,29.91,29.81,17,3,17,0.00
2013-6-27,86,69,60,72,65,59,99,90,51,29.86,29.75,24,4,24,0.04
2013-6-28,79,70,63,65,63,59,99,79,53,29.78,29.66,29,10,29,0.00
2013-6-29,72,66,61,64,60,54,99,82,53,29.91,29.70,26,13,26,0.00
2013-6-30,74,67,60,55,49,35,72,53,25,30.12,29.91,25,11,25,0.00
2013-7-1,79,68,58,56,51,42,81,56,29,30.20,30.11,18,9,18,0.00
2013-7-2,67,61,55,58,53,44,93,75,53,30.21,30.16,17,7,17,0.00
2013-7-3,64,61,60,63,60,57,99,95,83,30.17,30.10,16,5,16,0.24
2013-7-4,69,64,60,66,63,60,99,94,78,30.18,30.10,16,6,16,0.00
2013-7-5,76,69,65,67,64,60,99,85,72,30.15,30.09,21,6,21,0.00
2013-7-6,78,70,65,68,66,62,99,88,66,30.13,30.04,15,5,15,0.00
2013-7-7,78,72,68,71,69,67,99,89,76,30.07,30.00,15,6,15,0.00
2013-7-8,86,75,68,76,71,67,99,89,62,30.08,29.97,21,6,21,0.14
2013-7-9,85,69,62,76,68,62,99,96,78,30.09,29.88,19,4,19,0.05
2013-7-10,79,75,66,76,63,52,99,70,41,30.10,29.89,27,9,27,0.00
2013-7-11,78,67,59,62,57,51,91,72,43,30.20,30.09,15,5,15,0.00
2013-7-12,75,66,54,68,61,51,99,83,67,30.25,30.17,10,4,10,0.00
2013-7-13,80,70,61,71,64,58,99,80,51,30.27,30.17,11,3,11,0.00
2013-7-14,79,73,63,74,69,62,99,89,71,30.32,30.25,10,2,10,0.00
2013-7-15,82,75,67,75,71,67,99,88,66,30.37,30.31,10,2,10,0.00
2013-7-16,84,78,73,80,76,73,99,93,83,30.37,30.30,17,4,17,0.00
2013-7-17,93,82,78,78,76,72,98,83,54,30.36,30.23,15,6,15,0.00
2013-7-18,95,87,77,77,73,25,95,66,42,30.24,29.96,27,10,27,0.00
2013-7-19,92,86,76,74,70,60,75,60,43,29.97,29.79,32,13,32,0.00
2013-7-20,83,71,63,67,62,56,92,73,50,30.07,29.88,22,7,22,0.00
2013-7-21,74,68,64,67,61,53,99,80,61,30.09,29.97,17,6,17,0.56
2013-7-22,78,71,64,74,70,64,99,95,83,29.99,29.76,17,5,17,0.04
2013-7-23,77,69,57,74,59,50,98,71,51,30.09,29.74,26,10,26,0.00
2013-7-24,71,63,54,55,53,50,94,71,52,30.17,30.08,13,5,13,0.00
2013-7-25,72,66,57,67,59,50,94,79,64,30.17,30.04,19,8,19,0.00
2013-7-26,72,68,61,69,64,58,99,88,71,30.06,29.93,21,7,21,0.14
2013-7-27,61,57,54,59,51,45,99,80,58,30.00,29.92,21,8,21,0.01
2013-7-28,66,59,53,57,52,48,94,79,57,30.06,29.89,23,10,23,0.00
2013-7-29,68,61,56,60,56,51,96,82,66,30.27,30.05,15,5,15,0.00
2013-7-30,72,64,57,66,62,57,99,93,78,30.28,30.18,11,3,11,0.06
2013-7-31,69,65,62,68,64,62,99,99,95,30.18,30.02,13,3,13,0.20
2013-8-1,78,69,60,63,57,50,99,70,39,30.05,29.98,18,7,19,0.01
2013-8-2,81,71,62,68,61,56,99,74,44,30.03,29.91,21,7,21,0.12
2013-8-3,75,66,59,63,57,41,96,74,47,30.20,30.03,15,5,15,0.00
2013-8-4,70,64,57,61,57,53,99,79,64,30.31,30.20,11,5,13,0.00
2013-8-5,74,65,58,68,60,53,96,84,68,30.21,29.95,18,6,18,0.00
2013-8-6,76,70,63,72,68,63,99,94,82,29.96,29.86,14,5,14,0.00
2013-8-7,83,70,63,73,66,62,99,89,54,30.07,29.82,30,4,30,0.69
2013-8-8,76,67,59,64,57,48,99,73,43,30.16,30.06,11,1,11,0.00
2013-8-9,81,70,60,63,56,47,88,61,42,30.13,30.04,19,6,19,0.00
2013-8-10,73,66,58,66,61,48,99,84,63,30.24,30.13,15,2,15,0.00
2013-8-11,73,64,59,66,61,56,99,90,63,30.21,30.10,13,3,13,0.28
2013-8-12,74,67,60,69,65,53,99,93,80,30.12,29.97,23,4,23,0.00
2013-8-13,70,60,52,54,51,47,91,73,47,30.25,30.08,21,7,21,0.00
2013-8-14,69,60,50,56,50,45,92,69,47,30.30,30.22,13,6,13,0.00
2013-8-15,78,65,57,59,55,44,89,71,32,30.22,30.17,15,7,15,0.00
2013-8-18,76,71,66,68,65,58,95,82,72,30.22,30.18,11,5,11,0.00
2013-8-19,82,72,63,70,62,56,86,72,47,30.19,30.09,15,7,15,0.00
2013-8-20,86,74,68,72,68,64,93,82,51,30.16,30.09,20,8,20,0.00
2013-8-21,90,79,66,71,68,65,99,71,49,30.12,29.97,30,9,30,0.06
2013-8-22,76,70,61,72,66,56,99,89,65,30.21,30.07,15,4,15,0.12
2013-8-23,76,67,59,66,60,55,99,79,55,30.29,30.21,12,2,12,0.00
2013-8-24,78,68,57,70,64,56,99,89,74,30.35,30.26,14,5,14,0.00
2013-8-25,92,80,68,70,63,57,92,59,32,30.28,30.15,26,11,26,0.00
2013-8-26,92,81,75,75,69,65,87,68,52,30.19,30.01,29,11,29,0.00
2013-8-27,96,81,71,77,73,68,99,77,45,30.04,29.86,27,9,27,0.00
2013-8-28,79,73,69,75,71,68,99,92,77,30.13,29.91,17,6,17,0.00
2013-8-29,79,73,67,75,71,67,99,92,72,30.18,30.07,11,3,11,0.00
2013-8-30,95,76,66,77,70,64,96,82,47,29.97,29.85,20,8,20,0.00
2013-8-31,75,69,64,70,67,64,99,94,79,29.97,29.89,15,4,15,0.00
2013-9-1,82,70,61,73,67,61,99,93,67,29.91,29.78,15,3,15,0.05
2013-9-2,68,64,57,63,58,51,99,81,63,30.08,29.88,17,6,17,0.00
2013-9-3,74,63,51,62,54,50,99,76,48,30.17,30.07,14,6,14,0.00
2013-9-4,82,66,55,66,59,54,99,81,49,30.23,30.09,19,5,19,0.00
2013-9-5,69,64,54,62,53,47,95,68,49,30.39,30.22,17,6,17,0.00
2013-9-6,75,66,52,70,61,50,99,84,49,30.32,30.05,16,6,16,0.00
2013-9-7,83,72,67,76,69,66,99,91,59,30.10,29.96,28,7,28,0.63
2013-9-8,72,68,65,68,65,64,99,92,78,30.17,30.05,22,7,22,0.08
2013-9-9,84,73,67,79,72,67,99,97,71,30.07,29.86,19,9,19,0.08
2013-9-10,95,86,79,74,66,60,71,52,33,30.01,29.86,27,13,27,0.00
2013-9-11,82,74,68,70,67,64,99,80,55,30.16,30.00,17,6,17,0.04
2013-9-12,73,64,54,67,60,48,99,86,60,30.21,30.03,22,6,22,0.09
2013-9-13,64,54,47,49,45,40,92,74,45,30.29,30.21,21,9,21,0.00
2013-9-14,72,60,46,56,46,42,98,66,35,30.25,30.08,15,6,15,0.00
2013-9-15,62,58,52,60,53,44,99,87,53,30.32,30.08,21,5,21,0.58
2013-9-16,62,52,44,50,46,42,99,79,58,30.47,30.32,22,9,22,0.00
2013-9-17,65,59,46,60,53,46,99,82,68,30.43,30.19,21,8,21,0.00
2013-9-18,70,66,59,68,63,55,99,90,74,30.19,29.99,17,9,17,0.21
2013-9-19,73,69,67,72,68,60,99,99,90,30.00,29.81,27,9,27,0.30
2013-9-20,74,67,59,70,63,55,99,88,69,29.87,29.78,24,8,24,0.31
2013-9-21,60,56,50,57,50,46,99,82,62,30.04,29.87,19,8,19,0.00
2013-9-22,60,53,43,49,45,40,92,75,53,30.17,30.04,14,7,14,0.00
2013-9-23,63,58,54,55,49,46,80,73,61,30.22,30.14,16,6,16,0.00
2013-9-24,69,61,50,58,55,50,99,81,65,30.16,30.06,18,7,18,0.00
2013-9-25,67,58,50,62,54,50,99,89,67,30.10,30.05,13,3,13,0.00
2013-9-26,70,60,50,66,57,50,99,89,70,30.19,30.07,14,3,14,0.00
2013-9-27,70,63,52,64,60,51,99,89,66,30.25,30.15,17,4,17,0.01
2013-9-28,74,65,55,68,63,55,99,93,70,30.16,29.93,24,12,24,0.13
2013-9-29,68,58,50,55,51,42,99,81,42,30.14,30.01,11,4,18,0.18
2013-9-30,66,59,51,58,52,45,99,80,58,30.09,29.92,19,7,19,0.00
2013-10-1,82,68,54,64,59,52,99,76,50,30.03,29.89,32,9,32,0.00
2013-10-2,72,62,53,60,48,30,99,64,24,30.19,30.02,11,3,11,0.00
2013-10-3,70,63,58,69,62,56,99,97,85,30.08,29.93,26,4,26,0.72
2013-10-4,63,60,57,62,60,56,99,99,99,30.13,29.96,20,4,20,0.83
2013-10-5,67,64,61,66,64,60,99,99,99,30.06,29.81,11,1,11,0.08
2013-10-6,63,56,48,63,50,40,99,82,45,29.83,29.74,26,7,26,0.22
2013-10-7,66,55,48,50,46,40,99,75,40,30.16,29.76,23,9,23,0.01
2013-10-8,63,56,45,59,51,43,99,86,65,30.24,30.16,20,6,20,0.00
2013-10-9,61,57,52,55,52,50,99,85,74,30.31,30.21,14,5,14,0.00
2013-10-10,67,57,46,63,56,46,99,95,76,30.26,30.14,7,1,7,0.00
2013-10-11,66,58,48,62,56,48,99,94,85,30.16,30.05,12,3,12,0.01
2013-10-12,65,57,50,63,54,42,99,90,65,30.22,30.00,19,8,19,0.34
2013-10-13,61,51,44,46,41,37,91,71,44,30.47,30.22,21,6,21,0.00
2013-10-14,63,51,42,51,45,40,96,82,58,30.50,30.23,12,4,12,0.00
2013-10-15,56,53,48,55,52,47,99,98,92,30.24,29.81,20,6,20,0.22
2013-10-16,56,51,47,52,49,46,99,95,81,29.99,29.83,19,6,19,0.01
2013-10-17,54,48,44,47,44,39,99,87,59,29.98,29.86,16,5,16,0.05
2013-10-18,54,47,43,45,41,38,91,80,67,29.99,29.86,25,10,25,0.00
2013-10-19,54,45,39,42,37,27,99,77,36,29.97,29.79,30,8,30,0.01
2013-10-20,50,43,35,49,42,34,99,95,70,29.93,29.77,17,6,17,0.04
2013-10-21,50,41,34,48,32,21,98,72,55,29.99,29.78,27,11,27,0.04
2013-10-22,49,39,31,32,28,22,82,66,47,30.00,29.95,22,8,22,0.00
2013-10-23,42,37,29,30,27,19,97,70,40,30.05,29.98,21,9,21,0.00
2013-10-24,44,38,33,30,28,24,80,66,46,30.32,30.04,22,11,22,0.00
2013-10-25,51,42,30,31,27,22,91,60,36,30.41,29.92,39,12,39,0.00
2013-10-26,52,47,41,37,30,24,70,53,36,30.12,29.81,46,14,46,0.00
2013-10-27,55,45,34,34,30,27,84,59,34,30.11,29.96,25,7,25,0.00
2013-10-28,45,41,36,39,33,29,88,73,59,30.49,30.09,30,11,30,0.00
2013-10-29,47,42,34,46,40,30,99,93,76,30.47,30.22,11,4,11,0.00
2013-10-30,52,48,44,52,47,43,99,99,99,30.22,29.82,17,2,17,0.00
2013-10-31,60,53,46,59,52,43,99,99,99,29.83,29.25,27,7,27,0.39
2013-11-1,48,45,43,46,44,42,99,95,89,29.78,29.32,37,12,37,0.15
2013-11-2,48,43,36,43,39,34,99,87,62,30.21,29.78,20,8,20,0.02
2013-11-3,51,42,32,45,39,32,99,89,69,30.36,30.21,25,7,25,0.00
2013-11-4,53,47,45,48,45,43,99,93,81,30.34,30.13,31,15,31,0.00
2013-11-5,52,49,46,51,47,46,99,94,81,30.32,29.97,20,6,20,0.04
2013-11-6,61,44,32,60,42,27,99,92,72,30.19,29.77,31,12,31,0.18
2013-11-7,42,35,29,31,29,27,96,79,61,30.27,30.18,21,8,21,0.00
2013-11-8,45,37,27,42,33,26,99,85,53,30.35,29.93,23,11,23,0.00
2013-11-9,54,47,41,41,36,24,86,65,51,30.08,29.80,40,17,40,0.00
2013-11-10,49,43,39,35,29,26,66,58,42,30.34,30.08,27,12,27,0.00
2013-11-11,44,33,25,37,25,14,99,72,55,30.57,30.10,28,11,28,0.07
2013-11-12,31,25,21,18,14,9,80,63,43,30.72,30.57,24,12,24,0.00
2013-11-13,43,32,20,19,13,7,82,49,22,30.58,30.08,42,16,42,0.00
2013-11-14,49,42,35,30,24,15,57,49,38,30.08,29.93,36,13,36,0.00
2013-11-15,50,44,41,42,35,28,98,70,49,29.99,29.93,19,7,22,0.00
2013-11-16,50,44,40,50,43,37,99,98,86,29.98,29.58,27,13,27,0.01
2013-11-17,59,49,42,59,48,35,99,95,74,29.67,29.08,46,13,46,0.58
2013-11-18,42,34,28,35,25,21,76,68,60,30.30,29.65,46,21,46,0.02
2013-11-19,41,32,24,38,27,20,93,82,67,30.43,30.30,23,8,23,0.00
2013-11-20,42,40,35,38,35,32,99,85,74,30.33,30.17,34,16,34,0.04
2013-11-21,46,42,38,44,41,37,99,97,82,30.29,30.17,13,4,13,0.04
2013-11-22,40,32,27,39,26,13,99,80,54,30.50,30.27,24,12,24,0.01
2013-11-23,27,20,12,17,6,-1,75,56,41,30.73,30.41,33,15,33,0.00
2013-11-24,27,19,9,8,3,-4,78,52,29,30.71,30.30,35,12,35,0.00
2013-11-25,30,27,23,27,19,2,99,75,37,30.30,30.05,35,16,35,0.00
2013-11-26,32,27,15,29,18,4,87,69,42,30.22,30.05,30,13,30,0.00
2013-11-27,28,20,12,20,11,5,94,70,49,30.29,30.20,25,11,25,0.00
2013-11-28,27,23,17,20,16,13,95,75,62,30.53,30.23,21,7,21,0.00
2013-11-29,34,25,14,28,18,12,94,75,54,30.67,30.41,26,9,26,0.00
2013-11-30,47,37,30,32,28,23,80,69,53,30.41,30.06,17,9,22,0.00
2013-12-1,42,34,30,33,31,28,99,86,66,30.19,30.05,15,6,15,0.00
2013-12-2,41,35,28,37,32,28,99,89,75,30.04,29.87,19,4,19,0.02
2013-12-3,47,37,28,43,37,28,99,99,99,29.88,29.78,18,8,18,0.18
2013-12-4,54,42,38,51,42,37,99,98,84,29.85,29.51,36,7,36,0.08
2013-12-5,40,26,16,36,17,7,90,70,56,30.30,29.62,43,17,43,0.00
2013-12-6,17,12,7,8,3,0,80,69,55,30.56,30.27,28,15,28,0.00
2013-12-7,18,8,1,14,-1,-4,85,68,50,30.71,30.56,23,9,23,0.00
2013-12-8,32,18,6,28,14,-1,99,86,65,30.64,29.96,23,10,23,0.00
2013-12-9,29,14,-2,28,8,-8,99,78,60,30.20,29.92,33,14,40,0.00
2013-12-10,19,9,-4,9,0,-9,80,69,59,30.29,29.95,36,14,36,0.00
2013-12-11,12,6,-3,8,-4,-13,87,64,46,30.54,30.28,23,10,23,0.00
2013-12-12,17,9,-3,9,-1,-12,69,62,54,30.52,30.20,27,12,27,0.00
2013-12-13,27,20,17,20,14,9,89,76,69,30.28,30.19,22,10,22,0.00
2013-12-14,27,24,19,25,21,16,94,88,77,30.26,29.96,25,11,25,0.00
2013-12-15,20,10,0,16,-1,-13,88,60,44,30.14,29.93,30,15,30,0.00
2013-12-16,21,9,-4,11,-1,-14,79,63,32,30.20,30.01,17,8,21,0.00
2013-12-17,33,24,13,23,17,8,89,73,55,30.08,29.91,25,12,27,0.00
2013-12-18,34,24,12,22,11,1,64,57,38,30.16,29.80,24,10,24,0.00
2013-12-19,34,30,26,32,24,18,99,79,64,30.06,29.83,25,10,25,0.00
2013-12-20,32,28,24,30,27,23,99,96,88,29.95,29.84,24,9,24,0.00
2013-12-21,33,29,25,32,28,25,99,96,82,29.94,29.75,30,10,30,0.00
2013-12-22,32,26,21,29,24,17,99,92,82,30.14,29.74,26,12,26,0.00
2013-12-23,23,17,8,18,11,1,90,79,72,30.39,30.14,30,12,30,0.00
2013-12-24,23,11,0,8,0,-7,74,63,39,30.55,30.36,24,9,27,0.00
2013-12-25,23,20,14,18,14,6,81,76,66,30.36,30.09,21,10,21,0.00
2013-12-26,24,20,16,18,12,7,83,70,53,30.28,30.09,24,5,24,0.00
2013-12-27,39,29,17,26,21,14,91,72,55,30.31,30.01,27,9,27,0.04
2013-12-28,47,38,29,30,26,24,82,62,45,30.09,29.79,33,11,33,0.00
2013-12-29,43,21,1,28,9,-12,82,58,48,30.25,29.76,29,13,29,0.00
2013-12-30,4,-1,-10,-8,-16,-26,64,50,24,30.35,30.20,21,10,21,0.00
2013-12-31,8,5,0,-6,-9,-17,63,54,40,30.42,30.19,20,10,20,0.00
2014-1-1,11,6,-1,2,-5,-18,68,60,44,30.42,30.32,21,13,21,0.00
2014-1-2,12,8,0,4,-4,-15,76,60,45,30.44,30.27,27,14,27,0.00